Accueil
METAR-TAF:

METAR-TAF

Aéroports :

Kuala Terengganu, Malaisie

latitude: 05-22-53N, longitude: 103-06-17E, altitude: 6 m

Observation

Le bulletin a été fait il y a 54 minutes, à 05:00 UTC
Vent 3 kt de direction variable
Température 30°C
Humidité 75%
Pression 1008 hPa
Visibilité 10 km ou plus
Quelques nuages à une hauteur de 1800 ft

METAR: WMKN 280500Z VRB03KT 9999 FEW018 30/25 Q1008

Heure: 13:54 (05:54 UTC)

Prévision

Le bulletin a été fait il y a 54 minutes, à 05:00 UTC
Prévision valable du 28 à 06 UTC au 29 à 06 UTC
Vent 3 kt de direction variable
Visibilité 10 km ou plus
Quelques nuages à une hauteur de 1800 ft
Evoluant progressivement
du 28 à 12 UTC au 28 à 13 UTC
Quelques nuages à une hauteur de 2200 ft
Evoluant progressivement
du 28 à 23 UTC au 29 à 01 UTC
Quelques nuages à une hauteur de 1800 ft

TAF: WMKN 280500Z 2806/2906 VRB03KT 9999 FEW018 BECMG 2812/2813 FEW022 BECMG 2823/2901 FEW018

Observations et prévisions météorologiques de plus de 4000 aéroports (messages METAR et TAF).

Les stations disponibles sont représentées par des disques jaunes et rouges sur la carte.

Passer la souris dessus pour voir le nom de la station.

Cliquer dessus pour voir les observations et prévisions météorologiques.

Pour changer de carte: cliquez sur les boutons verts avec une croix noire pour zoomer, sur le bouton vert avec un tiret pour effectuer un zoom arrière, ou sur les flèches vertes pour les cartes adjacentes.


METAR-TAF: